sensor_id;sensor_type;location;lat;lon;timestamp;temperature;humidity
79513;SHT31;68962;51.980;5.678;2023-05-27T00:01:25;10.9;62.8
79513;SHT31;68962;51.980;5.678;2023-05-27T00:03:53;10.9;62.9
79513;SHT31;68962;51.980;5.678;2023-05-27T00:06:22;10.8;63.0
79513;SHT31;68962;51.980;5.678;2023-05-27T00:08:50;10.8;63.2
79513;SHT31;68962;51.980;5.678;2023-05-27T00:11:19;10.8;63.4
79513;SHT31;68962;51.980;5.678;2023-05-27T00:13:49;10.7;63.7
79513;SHT31;68962;51.980;5.678;2023-05-27T00:16:18;10.7;63.9
79513;SHT31;68962;51.980;5.678;2023-05-27T00:18:48;10.6;64.1
79513;SHT31;68962;51.980;5.678;2023-05-27T00:21:16;10.6;64.3
79513;SHT31;68962;51.980;5.678;2023-05-27T00:23:46;10.5;64.5
79513;SHT31;68962;51.980;5.678;2023-05-27T00:26:15;10.5;64.7
79513;SHT31;68962;51.980;5.678;2023-05-27T00:28:45;10.5;64.8
79513;SHT31;68962;51.980;5.678;2023-05-27T00:31:14;10.4;65.0
79513;SHT31;68962;51.980;5.678;2023-05-27T00:33:42;10.4;65.2
79513;SHT31;68962;51.980;5.678;2023-05-27T00:36:11;10.3;65.3
79513;SHT31;68962;51.980;5.678;2023-05-27T00:38:40;10.3;65.6
79513;SHT31;68962;51.980;5.678;2023-05-27T00:41:12;10.3;65.7
79513;SHT31;68962;51.980;5.678;2023-05-27T00:43:43;10.2;65.9
79513;SHT31;68962;51.980;5.678;2023-05-27T00:46:13;10.2;66.1
79513;SHT31;68962;51.980;5.678;2023-05-27T00:48:42;10.2;66.3
79513;SHT31;68962;51.980;5.678;2023-05-27T00:51:11;10.2;66.4
79513;SHT31;68962;51.980;5.678;2023-05-27T00:53:42;10.2;66.4
79513;SHT31;68962;51.980;5.678;2023-05-27T00:56:12;10.2;66.4
79513;SHT31;68962;51.980;5.678;2023-05-27T00:58:42;10.1;66.5
79513;SHT31;68962;51.980;5.678;2023-05-27T01:01:13;10.1;66.7
79513;SHT31;68962;51.980;5.678;2023-05-27T01:03:41;10.1;66.8
79513;SHT31;68962;51.980;5.678;2023-05-27T01:06:17;10.1;66.9
79513;SHT31;68962;51.980;5.678;2023-05-27T01:08:56;10.0;67.1
79513;SHT31;68962;51.980;5.678;2023-05-27T01:11:34;10.0;67.3
79513;SHT31;68962;51.980;5.678;2023-05-27T01:14:09;9.9;67.4
79513;SHT31;68962;51.980;5.678;2023-05-27T01:16:39;9.9;67.6
79513;SHT31;68962;51.980;5.678;2023-05-27T01:19:13;9.9;67.8
79513;SHT31;68962;51.980;5.678;2023-05-27T01:21:48;9.9;67.9
79513;SHT31;68962;51.980;5.678;2023-05-27T01:24:19;9.8;68.1
79513;SHT31;68962;51.980;5.678;2023-05-27T01:26:47;9.8;68.2
79513;SHT31;68962;51.980;5.678;2023-05-27T01:29:16;9.8;68.3
79513;SHT31;68962;51.980;5.678;2023-05-27T01:31:49;9.7;68.5
79513;SHT31;68962;51.980;5.678;2023-05-27T01:34:25;9.7;68.6
79513;SHT31;68962;51.980;5.678;2023-05-27T01:36:59;9.7;68.9
79513;SHT31;68962;51.980;5.678;2023-05-27T01:39:31;9.7;68.9
79513;SHT31;68962;51.980;5.678;2023-05-27T01:42:01;9.7;68.9
79513;SHT31;68962;51.980;5.678;2023-05-27T01:44:31;9.7;69.0
79513;SHT31;68962;51.980;5.678;2023-05-27T01:47:00;9.6;69.2
79513;SHT31;68962;51.980;5.678;2023-05-27T01:49:29;9.6;69.3
79513;SHT31;68962;51.980;5.678;2023-05-27T01:52:00;9.6;69.5
79513;SHT31;68962;51.980;5.678;2023-05-27T01:54:30;9.6;69.6
79513;SHT31;68962;51.980;5.678;2023-05-27T01:57:01;9.5;69.8
79513;SHT31;68962;51.980;5.678;2023-05-27T01:59:29;9.5;69.9
79513;SHT31;68962;51.980;5.678;2023-05-27T02:01:58;9.5;70.0
79513;SHT31;68962;51.980;5.678;2023-05-27T02:04:26;9.5;70.1
79513;SHT31;68962;51.980;5.678;2023-05-27T02:06:54;9.4;70.2
79513;SHT31;68962;51.980;5.678;2023-05-27T02:09:23;9.4;70.3
79513;SHT31;68962;51.980;5.678;2023-05-27T02:11:52;9.4;70.4
79513;SHT31;68962;51.980;5.678;2023-05-27T02:14:21;9.4;70.5
79513;SHT31;68962;51.980;5.678;2023-05-27T02:16:50;9.4;70.6
79513;SHT31;68962;51.980;5.678;2023-05-27T02:19:18;9.3;70.7
79513;SHT31;68962;51.980;5.678;2023-05-27T02:21:48;9.3;71.0
79513;SHT31;68962;51.980;5.678;2023-05-27T02:24:16;9.3;70.9
79513;SHT31;68962;51.980;5.678;2023-05-27T02:26:45;9.4;71.0
79513;SHT31;68962;51.980;5.678;2023-05-27T02:29:13;9.4;71.0
79513;SHT31;68962;51.980;5.678;2023-05-27T02:31:42;9.4;70.8
79513;SHT31;68962;51.980;5.678;2023-05-27T02:34:10;9.4;70.6
79513;SHT31;68962;51.980;5.678;2023-05-27T02:36:39;9.4;70.4
79513;SHT31;68962;51.980;5.678;2023-05-27T02:39:09;9.4;70.4
79513;SHT31;68962;51.980;5.678;2023-05-27T02:41:38;9.4;70.5
79513;SHT31;68962;51.980;5.678;2023-05-27T02:44:08;9.3;70.6
79513;SHT31;68962;51.980;5.678;2023-05-27T02:46:36;9.3;70.7
79513;SHT31;68962;51.980;5.678;2023-05-27T02:49:05;9.2;70.9
79513;SHT31;68962;51.980;5.678;2023-05-27T02:51:33;9.2;71.2
79513;SHT31;68962;51.980;5.678;2023-05-27T02:54:02;9.2;71.4
79513;SHT31;68962;51.980;5.678;2023-05-27T02:56:31;9.1;71.7
79513;SHT31;68962;51.980;5.678;2023-05-27T02:58:59;9.1;71.9
79513;SHT31;68962;51.980;5.678;2023-05-27T03:01:28;9.1;72.1
79513;SHT31;68962;51.980;5.678;2023-05-27T03:03:56;9.0;72.2
79513;SHT31;68962;51.980;5.678;2023-05-27T03:06:24;9.0;72.4
79513;SHT31;68962;51.980;5.678;2023-05-27T03:08:53;9.0;72.4
79513;SHT31;68962;51.980;5.678;2023-05-27T03:11:21;9.0;72.6
79513;SHT31;68962;51.980;5.678;2023-05-27T03:13:50;9.0;72.7
79513;SHT31;68962;51.980;5.678;2023-05-27T03:16:18;9.0;72.9
79513;SHT31;68962;51.980;5.678;2023-05-27T03:18:49;9.0;73.1
79513;SHT31;68962;51.980;5.678;2023-05-27T03:21:19;9.1;72.8
79513;SHT31;68962;51.980;5.678;2023-05-27T03:23:49;9.2;72.3
79513;SHT31;68962;51.980;5.678;2023-05-27T03:26:19;9.3;71.6
79513;SHT31;68962;51.980;5.678;2023-05-27T03:28:48;9.4;71.1
79513;SHT31;68962;51.980;5.678;2023-05-27T03:31:17;9.4;70.9
79513;SHT31;68962;51.980;5.678;2023-05-27T03:33:46;9.3;71.0
79513;SHT31;68962;51.980;5.678;2023-05-27T03:36:14;9.3;70.9
79513;SHT31;68962;51.980;5.678;2023-05-27T03:38:42;9.3;71.3
79513;SHT31;68962;51.980;5.678;2023-05-27T03:41:11;9.2;71.4
79513;SHT31;68962;51.980;5.678;2023-05-27T03:43:39;9.2;71.5
79513;SHT31;68962;51.980;5.678;2023-05-27T03:46:08;9.2;71.5
79513;SHT31;68962;51.980;5.678;2023-05-27T03:48:36;9.2;71.5
79513;SHT31;68962;51.980;5.678;2023-05-27T03:51:05;9.2;71.4
79513;SHT31;68962;51.980;5.678;2023-05-27T03:53:34;9.2;71.5
79513;SHT31;68962;51.980;5.678;2023-05-27T03:56:03;9.2;71.4
79513;SHT31;68962;51.980;5.678;2023-05-27T03:58:32;9.2;71.4
79513;SHT31;68962;51.980;5.678;2023-05-27T04:01:01;9.2;71.5
79513;SHT31;68962;51.980;5.678;2023-05-27T04:03:30;9.2;71.5
79513;SHT31;68962;51.980;5.678;2023-05-27T04:05:58;9.2;71.3
79513;SHT31;68962;51.980;5.678;2023-05-27T04:08:26;9.3;71.2
79513;SHT31;68962;51.980;5.678;2023-05-27T04:10:55;9.3;71.0
79513;SHT31;68962;51.980;5.678;2023-05-27T04:13:27;9.4;70.7
79513;SHT31;68962;51.980;5.678;2023-05-27T04:15:59;9.7;70.3
79513;SHT31;68962;51.980;5.678;2023-05-27T04:18:30;10.0;69.0
79513;SHT31;68962;51.980;5.678;2023-05-27T04:21:03;10.3;67.8
79513;SHT31;68962;51.980;5.678;2023-05-27T04:23:36;10.6;66.7
79513;SHT31;68962;51.980;5.678;2023-05-27T04:26:05;10.9;65.5
79513;SHT31;68962;51.980;5.678;2023-05-27T04:28:33;11.1;64.9
79513;SHT31;68962;51.980;5.678;2023-05-27T04:31:06;11.3;64.1
79513;SHT31;68962;51.980;5.678;2023-05-27T04:33:39;11.5;63.3
79513;SHT31;68962;51.980;5.678;2023-05-27T04:36:12;11.7;62.3
79513;SHT31;68962;51.980;5.678;2023-05-27T04:38:43;11.9;61.5
79513;SHT31;68962;51.980;5.678;2023-05-27T04:41:13;12.2;60.8
79513;SHT31;68962;51.980;5.678;2023-05-27T04:43:42;12.4;60.0
79513;SHT31;68962;51.980;5.678;2023-05-27T04:46:10;12.5;59.2
79513;SHT31;68962;51.980;5.678;2023-05-27T04:48:39;12.6;58.8
79513;SHT31;68962;51.980;5.678;2023-05-27T04:51:07;12.7;58.5
79513;SHT31;68962;51.980;5.678;2023-05-27T04:53:35;12.8;58.1
79513;SHT31;68962;51.980;5.678;2023-05-27T04:56:04;12.9;57.8
79513;SHT31;68962;51.980;5.678;2023-05-27T04:58:34;13.1;57.5
79513;SHT31;68962;51.980;5.678;2023-05-27T05:01:03;13.2;57.0
79513;SHT31;68962;51.980;5.678;2023-05-27T05:03:32;13.3;56.8
79513;SHT31;68962;51.980;5.678;2023-05-27T05:06:09;13.5;56.4
79513;SHT31;68962;51.980;5.678;2023-05-27T05:08:38;13.7;55.8
79513;SHT31;68962;51.980;5.678;2023-05-27T05:11:06;13.9;55.1
79513;SHT31;68962;51.980;5.678;2023-05-27T05:13:35;14.2;54.6
79513;SHT31;68962;51.980;5.678;2023-05-27T05:16:03;14.4;53.9
79513;SHT31;68962;51.980;5.678;2023-05-27T05:18:32;14.6;53.2
79513;SHT31;68962;51.980;5.678;2023-05-27T05:21:00;14.8;52.6
79513;SHT31;68962;51.980;5.678;2023-05-27T05:23:29;15.0;52.0
79513;SHT31;68962;51.980;5.678;2023-05-27T05:25:57;15.2;51.6
79513;SHT31;68962;51.980;5.678;2023-05-27T05:28:31;15.3;51.3
79513;SHT31;68962;51.980;5.678;2023-05-27T05:30:59;15.4;51.2
79513;SHT31;68962;51.980;5.678;2023-05-27T05:33:30;15.5;50.9
79513;SHT31;68962;51.980;5.678;2023-05-27T05:35:59;15.7;50.8
79513;SHT31;68962;51.980;5.678;2023-05-27T05:38:30;15.9;50.3
79513;SHT31;68962;51.980;5.678;2023-05-27T05:40:59;16.1;50.1
79513;SHT31;68962;51.980;5.678;2023-05-27T05:43:27;16.2;49.6
79513;SHT31;68962;51.980;5.678;2023-05-27T05:45:56;16.3;49.5
79513;SHT31;68962;51.980;5.678;2023-05-27T05:48:26;16.4;49.4
79513;SHT31;68962;51.980;5.678;2023-05-27T05:50:57;16.5;49.5
79513;SHT31;68962;51.980;5.678;2023-05-27T05:53:27;16.8;49.3
79513;SHT31;68962;51.980;5.678;2023-05-27T05:55:58;17.1;48.5
79513;SHT31;68962;51.980;5.678;2023-05-27T05:58:26;17.4;48.2
79513;SHT31;68962;51.980;5.678;2023-05-27T06:00:55;17.8;47.1
79513;SHT31;68962;51.980;5.678;2023-05-27T06:03:24;18.0;46.8
79513;SHT31;68962;51.980;5.678;2023-05-27T06:05:53;18.2;46.2
79513;SHT31;68962;51.980;5.678;2023-05-27T06:08:21;18.4;45.7
79513;SHT31;68962;51.980;5.678;2023-05-27T06:10:50;18.5;45.6
79513;SHT31;68962;51.980;5.678;2023-05-27T06:13:19;18.7;45.6
79513;SHT31;68962;51.980;5.678;2023-05-27T06:15:47;19.0;44.4
79513;SHT31;68962;51.980;5.678;2023-05-27T06:18:16;19.2;44.2
79513;SHT31;68962;51.980;5.678;2023-05-27T06:20:44;19.3;44.0
79513;SHT31;68962;51.980;5.678;2023-05-27T06:23:13;19.4;43.8
79513;SHT31;68962;51.980;5.678;2023-05-27T06:25:42;19.5;43.7
79513;SHT31;68962;51.980;5.678;2023-05-27T06:28:10;19.7;43.6
79513;SHT31;68962;51.980;5.678;2023-05-27T06:30:38;19.8;43.0
79513;SHT31;68962;51.980;5.678;2023-05-27T06:33:11;20.0;42.9
79513;SHT31;68962;51.980;5.678;2023-05-27T06:35:39;20.2;42.6
79513;SHT31;68962;51.980;5.678;2023-05-27T06:38:09;20.4;42.0
79513;SHT31;68962;51.980;5.678;2023-05-27T06:40:38;20.6;41.0
79513;SHT31;68962;51.980;5.678;2023-05-27T06:43:08;20.7;41.0
79513;SHT31;68962;51.980;5.678;2023-05-27T06:45:37;20.8;41.0
79513;SHT31;68962;51.980;5.678;2023-05-27T06:48:05;21.0;40.2
79513;SHT31;68962;51.980;5.678;2023-05-27T06:50:34;21.0;39.8
79513;SHT31;68962;51.980;5.678;2023-05-27T06:53:02;21.1;39.9
79513;SHT31;68962;51.980;5.678;2023-05-27T06:55:31;21.1;40.2
79513;SHT31;68962;51.980;5.678;2023-05-27T06:57:59;21.1;40.0
79513;SHT31;68962;51.980;5.678;2023-05-27T07:00:28;21.2;40.0
79513;SHT31;68962;51.980;5.678;2023-05-27T07:02:56;21.3;40.3
79513;SHT31;68962;51.980;5.678;2023-05-27T07:05:27;21.4;39.4
79513;SHT31;68962;51.980;5.678;2023-05-27T07:07:57;21.6;39.5
79513;SHT31;68962;51.980;5.678;2023-05-27T07:10:26;21.8;39.3
79513;SHT31;68962;51.980;5.678;2023-05-27T07:12:54;22.0;39.3
79513;SHT31;68962;51.980;5.678;2023-05-27T07:15:25;22.5;38.5
79513;SHT31;68962;51.980;5.678;2023-05-27T07:17:55;22.8;37.0
79513;SHT31;68962;51.980;5.678;2023-05-27T07:20:24;23.0;36.5
79513;SHT31;68962;51.980;5.678;2023-05-27T07:22:52;23.0;36.7
79513;SHT31;68962;51.980;5.678;2023-05-27T07:25:21;23.1;36.7
79513;SHT31;68962;51.980;5.678;2023-05-27T07:27:49;23.2;36.8
79513;SHT31;68962;51.980;5.678;2023-05-27T07:30:18;23.5;36.5
79513;SHT31;68962;51.980;5.678;2023-05-27T07:32:47;23.7;35.9
79513;SHT31;68962;51.980;5.678;2023-05-27T07:35:16;23.9;35.2
79513;SHT31;68962;51.980;5.678;2023-05-27T07:37:44;24.1;35.3
79513;SHT31;68962;51.980;5.678;2023-05-27T07:40:13;24.3;35.0
79513;SHT31;68962;51.980;5.678;2023-05-27T07:42:41;24.5;34.4
79513;SHT31;68962;51.980;5.678;2023-05-27T07:45:10;24.7;33.5
79513;SHT31;68962;51.980;5.678;2023-05-27T07:47:39;24.8;33.9
79513;SHT31;68962;51.980;5.678;2023-05-27T07:50:10;25.0;33.5
79513;SHT31;68962;51.980;5.678;2023-05-27T07:52:40;25.3;33.2
79513;SHT31;68962;51.980;5.678;2023-05-27T07:55:09;25.5;33.0
79513;SHT31;68962;51.980;5.678;2023-05-27T07:57:38;25.6;32.0
79513;SHT31;68962;51.980;5.678;2023-05-27T08:00:08;25.6;31.5
79513;SHT31;68962;51.980;5.678;2023-05-27T08:02:37;25.6;31.2
79513;SHT31;68962;51.980;5.678;2023-05-27T08:05:06;25.6;32.3
79513;SHT31;68962;51.980;5.678;2023-05-27T08:07:35;25.6;31.9
79513;SHT31;68962;51.980;5.678;2023-05-27T08:10:04;25.7;32.3
79513;SHT31;68962;51.980;5.678;2023-05-27T08:12:34;25.8;31.8
79513;SHT31;68962;51.980;5.678;2023-05-27T08:15:02;25.9;31.4
79513;SHT31;68962;51.980;5.678;2023-05-27T08:17:31;26.0;31.5
79513;SHT31;68962;51.980;5.678;2023-05-27T08:19:59;26.0;31.0
79513;SHT31;68962;51.980;5.678;2023-05-27T08:22:28;26.0;31.4
79513;SHT31;68962;51.980;5.678;2023-05-27T08:24:56;26.1;31.9
79513;SHT31;68962;51.980;5.678;2023-05-27T08:27:44;26.2;32.0
79513;SHT31;68962;51.980;5.678;2023-05-27T08:30:14;26.4;31.4
79513;SHT31;68962;51.980;5.678;2023-05-27T08:32:43;26.5;31.1
79513;SHT31;68962;51.980;5.678;2023-05-27T08:35:12;26.5;31.0
79513;SHT31;68962;51.980;5.678;2023-05-27T08:37:41;26.5;30.8
79513;SHT31;68962;51.980;5.678;2023-05-27T08:40:13;26.6;30.2
79513;SHT31;68962;51.980;5.678;2023-05-27T08:42:43;26.6;30.7
79513;SHT31;68962;51.980;5.678;2023-05-27T08:45:12;26.6;31.1
79513;SHT31;68962;51.980;5.678;2023-05-27T08:47:41;26.7;30.5
79513;SHT31;68962;51.980;5.678;2023-05-27T08:50:10;26.7;30.3
79513;SHT31;68962;51.980;5.678;2023-05-27T08:52:47;26.7;30.3
79513;SHT31;68962;51.980;5.678;2023-05-27T08:55:20;26.7;30.2
79513;SHT31;68962;51.980;5.678;2023-05-27T08:57:50;26.7;30.6
79513;SHT31;68962;51.980;5.678;2023-05-27T09:00:20;26.7;30.1
79513;SHT31;68962;51.980;5.678;2023-05-27T09:02:49;26.8;29.5
79513;SHT31;68962;51.980;5.678;2023-05-27T09:05:17;26.7;29.3
79513;SHT31;68962;51.980;5.678;2023-05-27T09:07:46;26.7;30.3
79513;SHT31;68962;51.980;5.678;2023-05-27T09:10:14;26.7;31.2
79513;SHT31;68962;51.980;5.678;2023-05-27T09:12:45;26.7;29.6
79513;SHT31;68962;51.980;5.678;2023-05-27T09:15:13;26.8;29.5
79513;SHT31;68962;51.980;5.678;2023-05-27T09:17:43;26.8;29.0
79513;SHT31;68962;51.980;5.678;2023-05-27T09:20:12;26.8;29.3
79513;SHT31;68962;51.980;5.678;2023-05-27T09:22:41;26.8;29.7
79513;SHT31;68962;51.980;5.678;2023-05-27T09:25:10;26.8;29.9
79513;SHT31;68962;51.980;5.678;2023-05-27T09:27:38;26.8;30.6
79513;SHT31;68962;51.980;5.678;2023-05-27T09:30:11;26.9;30.5
79513;SHT31;68962;51.980;5.678;2023-05-27T09:32:40;27.0;29.8
79513;SHT31;68962;51.980;5.678;2023-05-27T09:35:11;27.1;28.0
79513;SHT31;68962;51.980;5.678;2023-05-27T09:37:40;27.1;28.2
79513;SHT31;68962;51.980;5.678;2023-05-27T09:40:13;27.1;28.4
79513;SHT31;68962;51.980;5.678;2023-05-27T09:42:44;27.1;28.0
79513;SHT31;68962;51.980;5.678;2023-05-27T09:45:14;27.2;29.3
79513;SHT31;68962;51.980;5.678;2023-05-27T09:47:47;27.3;29.4
79513;SHT31;68962;51.980;5.678;2023-05-27T09:50:18;27.4;29.2
79513;SHT31;68962;51.980;5.678;2023-05-27T09:52:49;27.5;29.8
79513;SHT31;68962;51.980;5.678;2023-05-27T09:55:18;27.6;29.1
79513;SHT31;68962;51.980;5.678;2023-05-27T09:57:50;27.7;29.1
79513;SHT31;68962;51.980;5.678;2023-05-27T10:00:21;27.7;29.3
79513;SHT31;68962;51.980;5.678;2023-05-27T10:02:53;27.7;29.3
79513;SHT31;68962;51.980;5.678;2023-05-27T10:05:23;27.8;28.8
79513;SHT31;68962;51.980;5.678;2023-05-27T10:07:52;27.8;29.4
79513;SHT31;68962;51.980;5.678;2023-05-27T10:10:22;27.8;28.9
79513;SHT31;68962;51.980;5.678;2023-05-27T10:12:51;27.9;28.4
79513;SHT31;68962;51.980;5.678;2023-05-27T10:15:27;27.9;28.5
79513;SHT31;68962;51.980;5.678;2023-05-27T10:17:58;27.9;28.1
79513;SHT31;68962;51.980;5.678;2023-05-27T10:20:31;28.0;29.0
79513;SHT31;68962;51.980;5.678;2023-05-27T10:23:11;28.1;27.9
79513;SHT31;68962;51.980;5.678;2023-05-27T10:25:45;28.1;27.8
79513;SHT31;68962;51.980;5.678;2023-05-27T10:28:25;28.1;28.2
79513;SHT31;68962;51.980;5.678;2023-05-27T10:31:07;28.0;28.3
79513;SHT31;68962;51.980;5.678;2023-05-27T10:33:38;27.9;28.7
79513;SHT31;68962;51.980;5.678;2023-05-27T10:36:10;27.9;28.6
79513;SHT31;68962;51.980;5.678;2023-05-27T10:38:40;28.0;28.5
79513;SHT31;68962;51.980;5.678;2023-05-27T10:41:09;28.0;28.8
79513;SHT31;68962;51.980;5.678;2023-05-27T10:43:38;28.1;28.6
79513;SHT31;68962;51.980;5.678;2023-05-27T10:46:12;28.1;28.4
79513;SHT31;68962;51.980;5.678;2023-05-27T10:48:41;28.1;28.9
79513;SHT31;68962;51.980;5.678;2023-05-27T10:51:11;28.1;28.3
79513;SHT31;68962;51.980;5.678;2023-05-27T10:53:39;28.1;28.6
79513;SHT31;68962;51.980;5.678;2023-05-27T10:56:09;28.1;28.4
79513;SHT31;68962;51.980;5.678;2023-05-27T10:58:38;28.1;28.1
79513;SHT31;68962;51.980;5.678;2023-05-27T11:01:11;28.1;27.6
79513;SHT31;68962;51.980;5.678;2023-05-27T11:03:44;28.0;27.8
79513;SHT31;68962;51.980;5.678;2023-05-27T11:06:15;28.0;27.7
79513;SHT31;68962;51.980;5.678;2023-05-27T11:08:44;28.0;27.6
79513;SHT31;68962;51.980;5.678;2023-05-27T11:11:13;28.0;27.8
79513;SHT31;68962;51.980;5.678;2023-05-27T11:13:42;28.0;27.3
79513;SHT31;68962;51.980;5.678;2023-05-27T11:16:13;28.0;27.5
79513;SHT31;68962;51.980;5.678;2023-05-27T11:18:43;27.9;27.6
79513;SHT31;68962;51.980;5.678;2023-05-27T11:21:13;27.9;27.3
79513;SHT31;68962;51.980;5.678;2023-05-27T11:23:45;27.8;27.4
79513;SHT31;68962;51.980;5.678;2023-05-27T11:26:16;27.7;26.9
79513;SHT31;68962;51.980;5.678;2023-05-27T11:28:49;27.6;26.9
79513;SHT31;68962;51.980;5.678;2023-05-27T11:31:20;27.5;27.1
79513;SHT31;68962;51.980;5.678;2023-05-27T11:33:53;27.4;27.8
79513;SHT31;68962;51.980;5.678;2023-05-27T11:36:24;27.3;27.8
79513;SHT31;68962;51.980;5.678;2023-05-27T11:38:55;27.2;28.5
79513;SHT31;68962;51.980;5.678;2023-05-27T11:41:26;27.2;28.9
79513;SHT31;68962;51.980;5.678;2023-05-27T11:43:59;27.1;28.0
79513;SHT31;68962;51.980;5.678;2023-05-27T11:46:35;27.0;28.6
79513;SHT31;68962;51.980;5.678;2023-05-27T11:49:06;26.9;28.7
79513;SHT31;68962;51.980;5.678;2023-05-27T11:51:37;26.6;28.4
79513;SHT31;68962;51.980;5.678;2023-05-27T11:54:14;26.3;29.1
79513;SHT31;68962;51.980;5.678;2023-05-27T11:56:42;25.8;29.9
79513;SHT31;68962;51.980;5.678;2023-05-27T11:59:10;25.4;30.3
79513;SHT31;68962;51.980;5.678;2023-05-27T12:01:40;25.1;31.0
79513;SHT31;68962;51.980;5.678;2023-05-27T12:04:08;24.8;30.9
79513;SHT31;68962;51.980;5.678;2023-05-27T12:06:37;24.5;32.0
79513;SHT31;68962;51.980;5.678;2023-05-27T12:09:07;24.2;32.8
79513;SHT31;68962;51.980;5.678;2023-05-27T12:11:38;24.0;32.9
79513;SHT31;68962;51.980;5.678;2023-05-27T12:14:06;23.9;34.0
79513;SHT31;68962;51.980;5.678;2023-05-27T12:16:37;23.8;33.6
79513;SHT31;68962;51.980;5.678;2023-05-27T12:19:08;23.7;34.0
79513;SHT31;68962;51.980;5.678;2023-05-27T12:21:39;23.6;34.0
79513;SHT31;68962;51.980;5.678;2023-05-27T12:24:11;23.5;34.5
79513;SHT31;68962;51.980;5.678;2023-05-27T12:26:39;23.4;35.6
79513;SHT31;68962;51.980;5.678;2023-05-27T12:29:09;23.3;36.4
79513;SHT31;68962;51.980;5.678;2023-05-27T12:31:37;23.3;35.4
79513;SHT31;68962;51.980;5.678;2023-05-27T12:34:06;23.2;35.4
79513;SHT31;68962;51.980;5.678;2023-05-27T12:36:34;23.2;34.3
79513;SHT31;68962;51.980;5.678;2023-05-27T12:39:03;23.1;34.2
79513;SHT31;68962;51.980;5.678;2023-05-27T12:41:31;23.1;34.9
79513;SHT31;68962;51.980;5.678;2023-05-27T12:44:03;23.0;35.7
79513;SHT31;68962;51.980;5.678;2023-05-27T12:46:31;23.0;35.1
79513;SHT31;68962;51.980;5.678;2023-05-27T12:49:00;23.0;35.6
79513;SHT31;68962;51.980;5.678;2023-05-27T12:51:28;23.0;36.5
79513;SHT31;68962;51.980;5.678;2023-05-27T12:53:58;22.9;35.7
79513;SHT31;68962;51.980;5.678;2023-05-27T12:56:27;22.9;34.9
79513;SHT31;68962;51.980;5.678;2023-05-27T12:58:55;22.9;34.3
79513;SHT31;68962;51.980;5.678;2023-05-27T13:01:24;22.9;34.6
79513;SHT31;68962;51.980;5.678;2023-05-27T13:03:53;22.8;34.3
79513;SHT31;68962;51.980;5.678;2023-05-27T13:06:21;22.8;34.3
79513;SHT31;68962;51.980;5.678;2023-05-27T13:08:50;22.8;33.8
79513;SHT31;68962;51.980;5.678;2023-05-27T13:11:18;22.7;35.4
79513;SHT31;68962;51.980;5.678;2023-05-27T13:13:47;22.7;35.0
79513;SHT31;68962;51.980;5.678;2023-05-27T13:16:16;22.7;35.5
79513;SHT31;68962;51.980;5.678;2023-05-27T13:18:44;22.7;34.7
79513;SHT31;68962;51.980;5.678;2023-05-27T13:21:12;22.7;34.1
79513;SHT31;68962;51.980;5.678;2023-05-27T13:23:41;22.7;34.5
79513;SHT31;68962;51.980;5.678;2023-05-27T13:26:12;22.7;33.6
79513;SHT31;68962;51.980;5.678;2023-05-27T13:28:40;22.7;33.8
79513;SHT31;68962;51.980;5.678;2023-05-27T13:31:10;22.6;34.2
79513;SHT31;68962;51.980;5.678;2023-05-27T13:33:40;22.6;34.0
79513;SHT31;68962;51.980;5.678;2023-05-27T13:36:08;22.6;34.1
79513;SHT31;68962;51.980;5.678;2023-05-27T13:38:37;22.6;34.0
79513;SHT31;68962;51.980;5.678;2023-05-27T13:41:06;22.7;34.5
79513;SHT31;68962;51.980;5.678;2023-05-27T13:43:34;22.7;35.0
79513;SHT31;68962;51.980;5.678;2023-05-27T13:46:04;22.8;35.5
79513;SHT31;68962;51.980;5.678;2023-05-27T13:48:33;22.8;34.4
79513;SHT31;68962;51.980;5.678;2023-05-27T13:51:01;22.8;34.5
79513;SHT31;68962;51.980;5.678;2023-05-27T13:53:30;22.8;35.0
79513;SHT31;68962;51.980;5.678;2023-05-27T13:55:59;22.8;33.7
79513;SHT31;68962;51.980;5.678;2023-05-27T13:58:27;22.9;34.1
79513;SHT31;68962;51.980;5.678;2023-05-27T14:00:56;22.9;34.6
79513;SHT31;68962;51.980;5.678;2023-05-27T14:03:25;22.9;34.9
79513;SHT31;68962;51.980;5.678;2023-05-27T14:05:53;22.9;35.7
79513;SHT31;68962;51.980;5.678;2023-05-27T14:08:22;22.8;36.0
79513;SHT31;68962;51.980;5.678;2023-05-27T14:10:53;22.8;35.6
79513;SHT31;68962;51.980;5.678;2023-05-27T14:13:21;22.8;35.3
79513;SHT31;68962;51.980;5.678;2023-05-27T14:15:50;22.8;34.8
79513;SHT31;68962;51.980;5.678;2023-05-27T14:18:21;22.8;35.3
79513;SHT31;68962;51.980;5.678;2023-05-27T14:20:50;22.8;34.7
79513;SHT31;68962;51.980;5.678;2023-05-27T14:23:20;22.8;35.5
79513;SHT31;68962;51.980;5.678;2023-05-27T14:25:49;22.8;36.0
79513;SHT31;68962;51.980;5.678;2023-05-27T14:28:17;22.8;35.5
79513;SHT31;68962;51.980;5.678;2023-05-27T14:30:46;22.8;35.6
79513;SHT31;68962;51.980;5.678;2023-05-27T14:33:16;22.8;35.3
79513;SHT31;68962;51.980;5.678;2023-05-27T14:35:45;22.8;35.0
79513;SHT31;68962;51.980;5.678;2023-05-27T14:38:16;22.8;35.0
79513;SHT31;68962;51.980;5.678;2023-05-27T14:40:45;22.8;35.7
79513;SHT31;68962;51.980;5.678;2023-05-27T14:43:16;22.8;35.9
79513;SHT31;68962;51.980;5.678;2023-05-27T14:45:44;22.8;35.0
79513;SHT31;68962;51.980;5.678;2023-05-27T14:48:13;22.9;35.6
79513;SHT31;68962;51.980;5.678;2023-05-27T14:50:41;23.0;35.1
79513;SHT31;68962;51.980;5.678;2023-05-27T14:53:10;23.0;35.3
79513;SHT31;68962;51.980;5.678;2023-05-27T14:55:38;23.1;35.2
79513;SHT31;68962;51.980;5.678;2023-05-27T14:58:08;23.1;35.1
79513;SHT31;68962;51.980;5.678;2023-05-27T15:00:37;23.2;35.3
79513;SHT31;68962;51.980;5.678;2023-05-27T15:03:05;23.2;34.8
79513;SHT31;68962;51.980;5.678;2023-05-27T15:05:33;23.2;35.0
79513;SHT31;68962;51.980;5.678;2023-05-27T15:08:02;23.2;34.2
79513;SHT31;68962;51.980;5.678;2023-05-27T15:10:31;23.2;34.2
79513;SHT31;68962;51.980;5.678;2023-05-27T15:13:00;23.2;34.0
79513;SHT31;68962;51.980;5.678;2023-05-27T15:15:28;23.2;34.2
79513;SHT31;68962;51.980;5.678;2023-05-27T15:17:57;23.2;34.7
79513;SHT31;68962;51.980;5.678;2023-05-27T15:20:25;23.2;34.6
79513;SHT31;68962;51.980;5.678;2023-05-27T15:22:53;23.2;34.8
79513;SHT31;68962;51.980;5.678;2023-05-27T15:25:22;23.2;34.4
79513;SHT31;68962;51.980;5.678;2023-05-27T15:27:51;23.3;34.2
79513;SHT31;68962;51.980;5.678;2023-05-27T15:30:19;23.3;34.7
79513;SHT31;68962;51.980;5.678;2023-05-27T15:32:49;23.4;34.3
79513;SHT31;68962;51.980;5.678;2023-05-27T15:35:20;23.5;34.4
79513;SHT31;68962;51.980;5.678;2023-05-27T15:37:49;23.5;33.6
79513;SHT31;68962;51.980;5.678;2023-05-27T15:40:20;23.5;34.2
79513;SHT31;68962;51.980;5.678;2023-05-27T15:42:49;23.5;33.9
79513;SHT31;68962;51.980;5.678;2023-05-27T15:45:19;23.5;34.2
79513;SHT31;68962;51.980;5.678;2023-05-27T15:47:48;23.5;33.5
79513;SHT31;68962;51.980;5.678;2023-05-27T15:50:20;23.5;33.2
79513;SHT31;68962;51.980;5.678;2023-05-27T15:52:49;23.5;33.6
79513;SHT31;68962;51.980;5.678;2023-05-27T15:55:17;23.5;33.0
79513;SHT31;68962;51.980;5.678;2023-05-27T15:57:47;23.5;33.0
79513;SHT31;68962;51.980;5.678;2023-05-27T16:00:16;23.5;32.6
79513;SHT31;68962;51.980;5.678;2023-05-27T16:02:46;23.6;32.3
79513;SHT31;68962;51.980;5.678;2023-05-27T16:05:14;23.6;32.5
79513;SHT31;68962;51.980;5.678;2023-05-27T16:07:43;23.6;32.6
79513;SHT31;68962;51.980;5.678;2023-05-27T16:10:12;23.6;33.0
79513;SHT31;68962;51.980;5.678;2023-05-27T16:12:40;23.6;32.2
79513;SHT31;68962;51.980;5.678;2023-05-27T16:15:10;23.6;32.0
79513;SHT31;68962;51.980;5.678;2023-05-27T16:17:39;23.5;32.4
79513;SHT31;68962;51.980;5.678;2023-05-27T16:20:08;23.5;32.6